Time;durP1;ratioP1;P1;durP2;ratioP2;P2;SDS_P1;SDS_P2;PMS_P1;PMS_P2;Temp;Humidity;BMP_temperature;BMP_pressure;BME280_temperature;BME280_humidity;BME280_pressure;Samples;Min_cycle;Max_cycle;Signal;HPM_P1;HPM_P2
2024/01/21 00:01:38;;;;;;;13.47;4.73;;;;;;;;;;5053224;28;20220;-83
2024/01/21 00:04:08;;;;;;;9.33;4.73;;;;;;;;;;5053073;28;20204;-83
2024/01/21 00:06:36;;;;;;;13.37;5.07;;;;;;;;;;5054001;28;20254;-83
2024/01/21 00:09:03;;;;;;;8.10;4.37;;;;;;;;;;5053200;28;20287;-83
2024/01/21 00:11:30;;;;;;;11.97;5.03;;;;;;;;;;5052803;28;20208;-83
2024/01/21 00:13:57;;;;;;;11.83;4.30;;;;;;;;;;5073424;28;20203;-82
2024/01/21 00:16:25;;;;;;;9.43;4.93;;;;;;;;;;5072481;28;20203;-83
2024/01/21 00:18:52;;;;;;;11.97;5.00;;;;;;;;;;5072844;28;20624;-83
2024/01/21 00:21:19;;;;;;;8.27;3.37;;;;;;;;;;5072480;28;20231;-83
2024/01/21 00:23:46;;;;;;;8.60;4.40;;;;;;;;;;5038885;28;20196;-83
2024/01/21 00:26:13;;;;;;;10.93;4.23;;;;;;;;;;5074025;28;20192;-83
2024/01/21 00:28:41;;;;;;;8.17;4.77;;;;;;;;;;5076924;28;20218;-83
2024/01/21 00:31:08;;;;;;;7.37;4.30;;;;;;;;;;5076527;28;20212;-82
2024/01/21 00:33:35;;;;;;;8.10;4.40;;;;;;;;;;5076710;28;20211;-85
2024/01/21 00:36:02;;;;;;;9.83;5.00;;;;;;;;;;5076867;28;20191;-84
2024/01/21 00:38:29;;;;;;;12.20;5.17;;;;;;;;;;5076592;28;20200;-85
2024/01/21 00:40:57;;;;;;;11.23;5.37;;;;;;;;;;5076690;28;20269;-85
2024/01/21 00:43:24;;;;;;;11.47;5.20;;;;;;;;;;5076060;28;20213;-83
2024/01/21 00:45:53;;;;;;;11.13;5.53;;;;;;;;;;5076592;28;20207;-85
2024/01/21 00:48:20;;;;;;;9.10;5.00;;;;;;;;;;5076365;28;20227;-85
2024/01/21 00:51:02;;;;;;;12.60;5.70;;;;;;;;;;5076574;28;20188;-85
2024/01/21 00:53:29;;;;;;;13.77;5.93;;;;;;;;;;5076528;28;20211;-85
2024/01/21 00:55:56;;;;;;;8.03;5.27;;;;;;;;;;5077043;28;20188;-84
2024/01/21 00:58:23;;;;;;;10.73;5.77;;;;;;;;;;5076130;28;20199;-84
2024/01/21 01:00:54;;;;;;;9.43;5.40;;;;;;;;;;5076358;28;20591;-84
2024/01/21 01:03:21;;;;;;;9.10;5.93;;;;;;;;;;5059452;28;20199;-84
2024/01/21 01:05:49;;;;;;;9.87;5.27;;;;;;;;;;5077496;28;20547;-84
2024/01/21 01:08:17;;;;;;;11.23;5.10;;;;;;;;;;5058110;28;20253;-83
2024/01/21 01:10:45;;;;;;;8.53;5.10;;;;;;;;;;5075563;28;20675;-84
2024/01/21 01:13:11;;;;;;;12.37;5.97;;;;;;;;;;5076151;28;20229;-84
2024/01/21 01:15:39;;;;;;;10.07;5.33;;;;;;;;;;5076013;28;20195;-84
2024/01/21 01:18:06;;;;;;;11.53;5.30;;;;;;;;;;5058137;28;20596;-82
2024/01/21 01:20:34;;;;;;;15.57;5.77;;;;;;;;;;5075560;28;20227;-82
2024/01/21 01:23:01;;;;;;;10.90;5.87;;;;;;;;;;5041621;28;20671;-83
2024/01/21 01:25:28;;;;;;;12.60;5.57;;;;;;;;;;5075368;28;20660;-83
2024/01/21 01:27:55;;;;;;;7.50;5.00;;;;;;;;;;5075684;28;20210;-83
2024/01/21 01:30:22;;;;;;;12.67;6.43;;;;;;;;;;5075176;28;20194;-82
2024/01/21 01:32:49;;;;;;;11.23;6.00;;;;;;;;;;5075541;28;20203;-83
2024/01/21 01:35:17;;;;;;;10.53;5.80;;;;;;;;;;5075337;28;20211;-82
2024/01/21 01:37:44;;;;;;;8.57;5.87;;;;;;;;;;5076373;28;20214;-82
2024/01/21 01:40:11;;;;;;;9.93;5.50;;;;;;;;;;5075357;28;20196;-82
2024/01/21 01:42:38;;;;;;;9.10;5.70;;;;;;;;;;5075352;28;20290;-80
2024/01/21 01:45:06;;;;;;;12.13;5.00;;;;;;;;;;5075396;28;20200;-79
2024/01/21 01:47:33;;;;;;;14.40;5.77;;;;;;;;;;5075176;28;20207;-80
2024/01/21 01:50:00;;;;;;;8.77;5.57;;;;;;;;;;5075096;28;20567;-79
2024/01/21 01:52:27;;;;;;;7.93;5.27;;;;;;;;;;5075001;28;20207;-79
2024/01/21 01:54:55;;;;;;;10.07;4.87;;;;;;;;;;5057328;28;20202;-79
2024/01/21 01:57:22;;;;;;;11.90;5.30;;;;;;;;;;5040838;28;20238;-79
2024/01/21 01:59:49;;;;;;;12.87;5.03;;;;;;;;;;5056721;28;20704;-79
2024/01/21 02:02:16;;;;;;;8.03;5.13;;;;;;;;;;5075218;28;20310;-79
2024/01/21 02:04:43;;;;;;;10.57;5.20;;;;;;;;;;5078144;28;20211;-83
2024/01/21 02:07:10;;;;;;;9.10;5.20;;;;;;;;;;5057206;28;20200;-84
2024/01/21 02:09:37;;;;;;;10.23;5.43;;;;;;;;;;5074616;28;20207;-83
2024/01/21 02:12:05;;;;;;;12.33;5.00;;;;;;;;;;5074800;28;20756;-84
2024/01/21 02:14:32;;;;;;;7.57;4.50;;;;;;;;;;5056747;28;20199;-81
2024/01/21 02:16:59;;;;;;;8.47;4.87;;;;;;;;;;5074368;28;20210;-81
2024/01/21 02:19:27;;;;;;;12.00;5.07;;;;;;;;;;5074485;28;20195;-81
2024/01/21 02:21:55;;;;;;;11.40;4.60;;;;;;;;;;5074458;28;20296;-81
2024/01/21 02:24:30;;;;;;;9.23;4.70;;;;;;;;;;5074539;28;20215;-81
2024/01/21 02:26:57;;;;;;;7.33;4.70;;;;;;;;;;5074375;28;20301;-81
2024/01/21 02:29:25;;;;;;;11.70;5.17;;;;;;;;;;5074338;28;20192;-80
2024/01/21 02:31:53;;;;;;;11.73;5.20;;;;;;;;;;5074325;28;20716;-80
2024/01/21 02:34:20;;;;;;;11.57;4.90;;;;;;;;;;5074860;28;20199;-82
2024/01/21 02:36:47;;;;;;;10.03;4.43;;;;;;;;;;5074562;28;20241;-81
2024/01/21 02:39:15;;;;;;;7.43;4.33;;;;;;;;;;5073809;28;20204;-81
2024/01/21 02:41:42;;;;;;;8.17;4.80;;;;;;;;;;5056421;28;20219;-81
2024/01/21 02:44:09;;;;;;;8.30;5.10;;;;;;;;;;5074245;28;20203;-81
2024/01/21 02:46:36;;;;;;;9.47;5.23;;;;;;;;;;5074688;28;20644;-81
2024/01/21 02:49:03;;;;;;;9.00;5.20;;;;;;;;;;5073653;28;20202;-81
2024/01/21 02:51:30;;;;;;;9.83;5.13;;;;;;;;;;5073827;28;20203;-81
2024/01/21 02:53:58;;;;;;;10.20;5.60;;;;;;;;;;5073599;28;20203;-81
2024/01/21 02:56:28;;;;;;;14.43;5.37;;;;;;;;;;5073442;28;20652;-78
2024/01/21 02:58:55;;;;;;;11.37;5.13;;;;;;;;;;5071023;28;20230;-82
2024/01/21 03:01:22;;;;;;;10.50;5.53;;;;;;;;;;5073196;28;20222;-82
2024/01/21 03:03:50;;;;;;;7.67;4.67;;;;;;;;;;5073299;28;20656;-81
2024/01/21 03:06:17;;;;;;;10.17;5.10;;;;;;;;;;5073359;28;20672;-82
2024/01/21 03:08:45;;;;;;;7.43;3.97;;;;;;;;;;5073267;28;20203;-80
2024/01/21 03:11:12;;;;;;;10.67;4.07;;;;;;;;;;5073055;28;20207;-80
2024/01/21 03:13:39;;;;;;;8.70;4.33;;;;;;;;;;5073880;28;20202;-81
2024/01/21 03:16:06;;;;;;;10.13;3.97;;;;;;;;;;5073538;28;20204;-81
2024/01/21 03:18:38;;;;;;;9.77;3.80;;;;;;;;;;5074078;28;20264;-81
2024/01/21 03:21:09;;;;;;;7.50;4.23;;;;;;;;;;5073760;28;20227;-81
2024/01/21 03:23:37;;;;;;;8.97;4.03;;;;;;;;;;5074185;28;20199;-81
2024/01/21 03:26:04;;;;;;;6.40;4.30;;;;;;;;;;5073625;28;20551;-82
2024/01/21 03:28:31;;;;;;;8.23;3.80;;;;;;;;;;5057136;28;20211;-83
2024/01/21 03:30:58;;;;;;;8.23;3.57;;;;;;;;;;5073980;28;20199;-82
2024/01/21 03:33:26;;;;;;;6.97;3.20;;;;;;;;;;5072761;28;20211;-82
2024/01/21 03:35:53;;;;;;;5.53;3.77;;;;;;;;;;5073184;28;20297;-82
2024/01/21 03:38:20;;;;;;;6.03;3.93;;;;;;;;;;5072999;28;20207;-81
2024/01/21 03:40:47;;;;;;;5.37;3.70;;;;;;;;;;5055096;28;20222;-82
2024/01/21 03:43:15;;;;;;;7.40;3.93;;;;;;;;;;5072867;28;20195;-81
2024/01/21 03:45:42;;;;;;;8.20;4.70;;;;;;;;;;5073108;28;20200;-82
2024/01/21 03:48:11;;;;;;;10.27;4.43;;;;;;;;;;5073214;28;20195;-81
2024/01/21 03:50:38;;;;;;;11.97;4.63;;;;;;;;;;5072874;28;20203;-81
2024/01/21 03:53:05;;;;;;;8.37;4.23;;;;;;;;;;5072733;28;20656;-80
2024/01/21 03:55:32;;;;;;;10.73;4.07;;;;;;;;;;5072977;28;20215;-81
2024/01/21 03:57:59;;;;;;;10.80;4.80;;;;;;;;;;5073468;28;20640;-82
2024/01/21 04:00:27;;;;;;;8.60;4.17;;;;;;;;;;5072629;28;20231;-81
2024/01/21 04:02:54;;;;;;;10.43;5.00;;;;;;;;;;5076548;28;20561;-82
2024/01/21 04:05:21;;;;;;;9.83;4.50;;;;;;;;;;5059691;28;20229;-82
2024/01/21 04:07:48;;;;;;;9.50;4.93;;;;;;;;;;5077693;28;20203;-82
2024/01/21 04:10:15;;;;;;;10.13;4.33;;;;;;;;;;5076994;28;20822;-81
2024/01/21 04:12:42;;;;;;;7.90;4.43;;;;;;;;;;5075936;28;20207;-81
2024/01/21 04:15:09;;;;;;;12.83;4.83;;;;;;;;;;5076624;28;20199;-83
2024/01/21 04:17:37;;;;;;;8.83;4.90;;;;;;;;;;5076313;28;20207;-83
2024/01/21 04:20:07;;;;;;;6.50;4.37;;;;;;;;;;5076579;28;20223;-83
2024/01/21 04:22:35;;;;;;;11.53;4.43;;;;;;;;;;5061019;28;20571;-83
2024/01/21 04:25:02;;;;;;;10.33;5.07;;;;;;;;;;5078485;28;20195;-86
2024/01/21 04:27:29;;;;;;;9.57;4.00;;;;;;;;;;5076100;28;20659;-79
2024/01/21 04:29:56;;;;;;;8.10;3.93;;;;;;;;;;5058007;28;20230;-82
2024/01/21 04:32:23;;;;;;;7.93;4.13;;;;;;;;;;5076145;28;20210;-82
2024/01/21 04:34:50;;;;;;;9.23;4.13;;;;;;;;;;5076177;28;20211;-83
2024/01/21 04:37:18;;;;;;;9.70;4.57;;;;;;;;;;5076273;28;20683;-82
2024/01/21 04:39:45;;;;;;;12.40;4.50;;;;;;;;;;5076556;28;20199;-82
2024/01/21 04:42:12;;;;;;;12.27;5.10;;;;;;;;;;5076509;28;20671;-83
2024/01/21 04:44:39;;;;;;;10.43;4.43;;;;;;;;;;5076194;28;20208;-82
2024/01/21 04:47:06;;;;;;;10.57;5.10;;;;;;;;;;5076462;28;20644;-81
2024/01/21 04:49:33;;;;;;;8.47;4.23;;;;;;;;;;5057826;28;20235;-83
2024/01/21 04:52:01;;;;;;;9.53;4.70;;;;;;;;;;5056514;28;20249;-81
2024/01/21 04:54:28;;;;;;;9.33;4.47;;;;;;;;;;5063953;28;20211;-80
2024/01/21 04:56:55;;;;;;;8.47;4.50;;;;;;;;;;5076654;28;20304;-81
2024/01/21 04:59:22;;;;;;;9.73;4.97;;;;;;;;;;5076127;28;20237;-80
2024/01/21 05:01:50;;;;;;;10.50;5.37;;;;;;;;;;5075645;28;20554;-80
2024/01/21 05:04:17;;;;;;;12.20;5.23;;;;;;;;;;5075536;28;20227;-80
2024/01/21 05:06:44;;;;;;;17.40;6.53;;;;;;;;;;5058871;28;20682;-80
2024/01/21 05:09:11;;;;;;;17.13;6.60;;;;;;;;;;5075955;28;20199;-81
2024/01/21 05:11:38;;;;;;;16.90;7.77;;;;;;;;;;5058435;28;20207;-80
2024/01/21 05:14:05;;;;;;;13.07;6.60;;;;;;;;;;5075860;28;20226;-82
2024/01/21 05:16:33;;;;;;;12.83;5.60;;;;;;;;;;5076436;28;20211;-80
2024/01/21 05:19:00;;;;;;;12.50;5.87;;;;;;;;;;5077047;28;20290;-80
2024/01/21 05:21:27;;;;;;;14.17;6.00;;;;;;;;;;5075720;28;20227;-79
2024/01/21 05:23:54;;;;;;;11.60;6.03;;;;;;;;;;5075691;28;20231;-80
2024/01/21 05:26:21;;;;;;;11.03;5.40;;;;;;;;;;5075493;28;20211;-80
2024/01/21 05:28:48;;;;;;;12.93;5.53;;;;;;;;;;5058090;28;20199;-80
2024/01/21 05:31:16;;;;;;;8.50;4.87;;;;;;;;;;5075415;28;20207;-81
2024/01/21 05:33:43;;;;;;;7.03;3.87;;;;;;;;;;5075833;28;20202;-80
2024/01/21 05:36:11;;;;;;;9.17;4.70;;;;;;;;;;5075503;28;20203;-81
2024/01/21 05:38:37;;;;;;;5.57;4.10;;;;;;;;;;5075821;28;20203;-80
2024/01/21 05:41:05;;;;;;;6.83;3.80;;;;;;;;;;5075974;28;20264;-83
2024/01/21 05:43:32;;;;;;;11.53;4.13;;;;;;;;;;5077454;28;20207;-82
2024/01/21 05:45:59;;;;;;;7.80;3.73;;;;;;;;;;5075892;28;20555;-82
2024/01/21 05:48:26;;;;;;;8.17;3.57;;;;;;;;;;5075037;28;20219;-79
2024/01/21 05:50:54;;;;;;;7.07;3.90;;;;;;;;;;5074941;28;20210;-80
2024/01/21 05:53:21;;;;;;;9.80;4.50;;;;;;;;;;5075065;28;20199;-82
2024/01/21 05:55:48;;;;;;;10.37;4.10;;;;;;;;;;5074947;28;20206;-83
2024/01/21 05:58:15;;;;;;;8.77;4.17;;;;;;;;;;5075417;28;20287;-80
2024/01/21 06:00:43;;;;;;;6.13;3.73;;;;;;;;;;5075250;28;20231;-79
2024/01/21 06:03:10;;;;;;;9.00;3.93;;;;;;;;;;5074422;28;20231;-80
2024/01/21 06:05:38;;;;;;;8.17;4.13;;;;;;;;;;5075258;28;20245;-80
2024/01/21 06:08:05;;;;;;;5.10;3.70;;;;;;;;;;5074505;28;20234;-79
2024/01/21 06:10:32;;;;;;;6.23;4.07;;;;;;;;;;5056750;28;20199;-80
2024/01/21 06:12:59;;;;;;;5.73;3.63;;;;;;;;;;5074454;28;20223;-80
2024/01/21 06:15:26;;;;;;;5.90;3.60;;;;;;;;;;5074604;28;20273;-79
2024/01/21 06:17:53;;;;;;;5.67;3.40;;;;;;;;;;5074424;28;20717;-80
2024/01/21 06:20:20;;;;;;;4.30;3.33;;;;;;;;;;5074264;28;20211;-80
2024/01/21 06:22:47;;;;;;;7.37;4.13;;;;;;;;;;5074355;28;20222;-80
2024/01/21 06:25:15;;;;;;;11.00;4.30;;;;;;;;;;5073305;28;20211;-80
2024/01/21 06:27:42;;;;;;;9.67;4.00;;;;;;;;;;5076170;28;20226;-80
2024/01/21 06:30:11;;;;;;;6.00;3.37;;;;;;;;;;5074127;28;20207;-80
2024/01/21 06:32:38;;;;;;;7.57;4.40;;;;;;;;;;5074240;28;20203;-82
2024/01/21 06:35:10;;;;;;;9.43;4.07;;;;;;;;;;5069079;28;20204;-82
2024/01/21 06:37:38;;;;;;;6.23;4.00;;;;;;;;;;5061050;28;20200;-82
2024/01/21 06:40:07;;;;;;;15.90;4.40;;;;;;;;;;5064859;28;20221;-80
2024/01/21 06:42:36;;;;;;;10.87;4.47;;;;;;;;;;5066243;28;20289;-81
2024/01/21 06:45:04;;;;;;;10.73;4.53;;;;;;;;;;5068881;28;20203;-83
2024/01/21 06:47:31;;;;;;;10.47;4.60;;;;;;;;;;5050924;28;20192;-81
2024/01/21 06:49:59;;;;;;;9.07;5.00;;;;;;;;;;5070824;28;20215;-80
2024/01/21 06:52:25;;;;;;;12.07;5.77;;;;;;;;;;5060257;28;20216;-80
2024/01/21 06:54:53;;;;;;;21.50;6.97;;;;;;;;;;5066449;28;20192;-80
2024/01/21 06:57:20;;;;;;;27.03;11.80;;;;;;;;;;5063581;28;20220;-80
2024/01/21 06:59:49;;;;;;;60.30;23.30;;;;;;;;;;5050936;28;20228;-80
2024/01/21 07:02:16;;;;;;;60.83;22.17;;;;;;;;;;5044571;28;20217;-80
2024/01/21 07:04:43;;;;;;;43.40;14.23;;;;;;;;;;5042693;28;20192;-80
2024/01/21 07:07:10;;;;;;;36.07;11.47;;;;;;;;;;5045899;28;20192;-80
2024/01/21 07:09:44;;;;;;;41.37;10.70;;;;;;;;;;5041801;28;20220;-80
2024/01/21 07:12:11;;;;;;;26.33;8.43;;;;;;;;;;5042334;28;21587;-82
2024/01/21 07:14:38;;;;;;;27.10;7.13;;;;;;;;;;5043260;28;20619;-82
2024/01/21 07:17:05;;;;;;;12.80;5.80;;;;;;;;;;5039700;28;20584;-82
2024/01/21 07:19:33;;;;;;;8.00;4.60;;;;;;;;;;5025136;28;20201;-81
2024/01/21 07:22:00;;;;;;;6.60;4.53;;;;;;;;;;5034691;28;20580;-81
2024/01/21 07:24:27;;;;;;;6.37;4.90;;;;;;;;;;5035641;28;20285;-80
2024/01/21 07:26:54;;;;;;;9.10;5.10;;;;;;;;;;5050742;28;20227;-80
2024/01/21 07:29:22;;;;;;;9.17;5.17;;;;;;;;;;5051873;28;20708;-79
2024/01/21 07:31:49;;;;;;;9.77;5.33;;;;;;;;;;5052213;28;20234;-80
2024/01/21 07:34:16;;;;;;;13.50;5.63;;;;;;;;;;5050858;28;20239;-79
2024/01/21 07:36:43;;;;;;;17.83;7.13;;;;;;;;;;5049065;28;20227;-79
2024/01/21 07:39:11;;;;;;;10.40;5.43;;;;;;;;;;5049977;28;20236;-79
2024/01/21 07:41:38;;;;;;;28.80;10.13;;;;;;;;;;5047149;28;20228;-80
2024/01/21 07:44:05;;;;;;;18.53;7.00;;;;;;;;;;5056204;28;20654;-80
2024/01/21 07:46:32;;;;;;;11.97;5.03;;;;;;;;;;5049476;28;20235;-80
2024/01/21 07:49:00;;;;;;;12.57;6.00;;;;;;;;;;5043317;28;20220;-80
2024/01/21 07:51:27;;;;;;;10.83;5.20;;;;;;;;;;5050056;28;20211;-80
2024/01/21 07:53:54;;;;;;;11.47;5.07;;;;;;;;;;5043793;28;20224;-80
2024/01/21 07:56:22;;;;;;;8.03;4.77;;;;;;;;;;5046548;28;20216;-79
2024/01/21 07:58:49;;;;;;;10.87;5.13;;;;;;;;;;5050289;28;20297;-79
2024/01/21 08:01:20;;;;;;;10.53;4.80;;;;;;;;;;5056499;28;20584;-79
2024/01/21 08:03:48;;;;;;;9.43;4.80;;;;;;;;;;5038897;28;20668;-79
2024/01/21 08:06:15;;;;;;;11.97;5.00;;;;;;;;;;5056091;28;20220;-79
2024/01/21 08:08:43;;;;;;;9.43;4.50;;;;;;;;;;5054842;28;20265;-80
2024/01/21 08:11:10;;;;;;;7.37;3.57;;;;;;;;;;5056268;28;20223;-78
2024/01/21 08:13:37;;;;;;;6.90;3.80;;;;;;;;;;5039750;28;20258;-81
2024/01/21 08:16:04;;;;;;;7.67;4.20;;;;;;;;;;5055825;28;20228;-80
2024/01/21 08:18:31;;;;;;;8.47;4.50;;;;;;;;;;5055243;28;20266;-79
2024/01/21 08:21:03;;;;;;;8.90;4.47;;;;;;;;;;5054606;28;20223;-80
2024/01/21 08:23:31;;;;;;;8.77;4.47;;;;;;;;;;5054805;28;20739;-79
2024/01/21 08:25:58;;;;;;;6.03;4.20;;;;;;;;;;5039034;28;20231;-80
2024/01/21 08:28:25;;;;;;;7.93;4.13;;;;;;;;;;5056097;28;20680;-79
2024/01/21 08:30:53;;;;;;;7.53;4.83;;;;;;;;;;5054945;28;20226;-80
2024/01/21 08:33:21;;;;;;;8.10;4.07;;;;;;;;;;5055360;28;20570;-79
2024/01/21 08:35:48;;;;;;;8.30;4.20;;;;;;;;;;5048677;28;20223;-81
2024/01/21 08:38:15;;;;;;;9.60;4.73;;;;;;;;;;5053144;28;20216;-81
2024/01/21 08:40:43;;;;;;;7.80;4.40;;;;;;;;;;5046985;28;20312;-81
2024/01/21 08:43:10;;;;;;;9.33;4.93;;;;;;;;;;5053368;28;20236;-82
2024/01/21 08:45:37;;;;;;;6.73;4.00;;;;;;;;;;5051306;28;20274;-81
2024/01/21 08:48:05;;;;;;;6.10;3.97;;;;;;;;;;5053977;28;20227;-80
2024/01/21 08:50:32;;;;;;;7.43;3.97;;;;;;;;;;5050010;28;20235;-80
2024/01/21 08:52:59;;;;;;;7.33;4.50;;;;;;;;;;5052459;28;20242;-80
2024/01/21 08:55:26;;;;;;;11.20;4.30;;;;;;;;;;5031298;28;20236;-82
2024/01/21 08:57:53;;;;;;;8.20;4.23;;;;;;;;;;5043433;28;20238;-80
2024/01/21 09:00:21;;;;;;;5.80;3.93;;;;;;;;;;5043589;28;20232;-81
2024/01/21 09:02:48;;;;;;;9.27;4.40;;;;;;;;;;5045759;28;20220;-84
2024/01/21 09:05:15;;;;;;;10.10;5.13;;;;;;;;;;5048694;28;21400;-83
2024/01/21 09:07:42;;;;;;;7.63;5.17;;;;;;;;;;5049743;28;20259;-81
2024/01/21 09:10:09;;;;;;;7.90;4.60;;;;;;;;;;5053284;28;20235;-81
2024/01/21 09:12:37;;;;;;;8.97;4.87;;;;;;;;;;5051558;28;20488;-81
2024/01/21 09:15:05;;;;;;;319.83;120.07;;;;;;;;;;5041312;28;20316;-81
2024/01/21 09:17:32;;;;;;;77.37;46.13;;;;;;;;;;5041218;28;20223;-80
2024/01/21 09:20:00;;;;;;;73.07;25.67;;;;;;;;;;5043935;28;20254;-81
2024/01/21 09:22:27;;;;;;;57.33;18.17;;;;;;;;;;5042379;28;20224;-81
2024/01/21 09:24:54;;;;;;;57.90;16.33;;;;;;;;;;5045788;28;20228;-81
2024/01/21 09:27:23;;;;;;;69.33;22.00;;;;;;;;;;5039251;28;20232;-80
2024/01/21 09:29:50;;;;;;;103.53;29.40;;;;;;;;;;5041567;28;20232;-83
2024/01/21 09:32:17;;;;;;;102.83;23.43;;;;;;;;;;5043269;28;20738;-81
2024/01/21 09:34:45;;;;;;;226.50;63.03;;;;;;;;;;5046800;28;20572;-82
2024/01/21 09:37:13;;;;;;;111.97;36.90;;;;;;;;;;5041909;28;20232;-83
2024/01/21 09:39:40;;;;;;;105.43;37.40;;;;;;;;;;5035181;28;20230;-83
2024/01/21 09:42:08;;;;;;;112.27;69.33;;;;;;;;;;5053888;28;20695;-83
2024/01/21 09:44:35;;;;;;;63.63;25.47;;;;;;;;;;5054389;28;20322;-83
2024/01/21 09:47:02;;;;;;;39.53;13.03;;;;;;;;;;5050264;28;20236;-83
2024/01/21 09:49:34;;;;;;;58.47;20.10;;;;;;;;;;5054241;28;20231;-83
2024/01/21 09:52:02;;;;;;;35.47;14.17;;;;;;;;;;5047013;28;20315;-83
2024/01/21 09:54:30;;;;;;;45.23;18.90;;;;;;;;;;5043151;28;20683;-82
2024/01/21 09:56:57;;;;;;;38.83;12.43;;;;;;;;;;5040142;28;20704;-83
2024/01/21 09:59:25;;;;;;;85.33;19.00;;;;;;;;;;5039128;28;20632;-82
2024/01/21 10:01:52;;;;;;;44.27;13.90;;;;;;;;;;5046843;28;20715;-82
2024/01/21 10:04:20;;;;;;;58.83;22.57;;;;;;;;;;5045090;28;20242;-82
2024/01/21 10:06:51;;;;;;;45.83;16.70;;;;;;;;;;5038342;28;20256;-82
2024/01/21 10:09:21;;;;;;;43.80;16.50;;;;;;;;;;5044566;28;20491;-82
2024/01/21 10:11:57;;;;;;;44.77;16.57;;;;;;;;;;5045654;28;20239;-83
2024/01/21 10:14:28;;;;;;;82.00;26.10;;;;;;;;;;5040648;28;20230;-82
2024/01/21 10:16:55;;;;;;;64.63;33.77;;;;;;;;;;5039633;28;20228;-83
2024/01/21 10:19:26;;;;;;;72.60;28.43;;;;;;;;;;5040943;28;20219;-82
2024/01/21 10:22:14;;;;;;;50.97;16.17;;;;;;;;;;5039210;28;20228;-82
2024/01/21 10:24:45;;;;;;;42.13;15.70;;;;;;;;;;5044282;28;20227;-82
2024/01/21 10:27:13;;;;;;;26.07;11.27;;;;;;;;;;5047718;28;20281;-82
2024/01/21 10:29:45;;;;;;;30.47;14.43;;;;;;;;;;5049863;28;20744;-83
2024/01/21 10:32:14;;;;;;;40.13;11.80;;;;;;;;;;5049471;28;20222;-82
2024/01/21 10:34:45;;;;;;;28.00;9.23;;;;;;;;;;5048232;28;20765;-83
2024/01/21 10:37:17;;;;;;;18.40;8.00;;;;;;;;;;5044619;28;20370;-81
2024/01/21 10:39:48;;;;;;;55.53;19.47;;;;;;;;;;5048943;28;20220;-82
2024/01/21 10:42:16;;;;;;;29.27;11.27;;;;;;;;;;5047470;28;20227;-84
2024/01/21 10:44:44;;;;;;;19.57;8.77;;;;;;;;;;5049274;28;20285;-83
2024/01/21 10:47:12;;;;;;;23.40;9.37;;;;;;;;;;5042934;28;20370;-81
2024/01/21 10:49:40;;;;;;;79.93;29.73;;;;;;;;;;5034225;28;20494;-78
2024/01/21 10:52:09;;;;;;;192.37;62.73;;;;;;;;;;5047651;28;20220;-82
2024/01/21 10:54:37;;;;;;;204.60;62.70;;;;;;;;;;5038947;28;20224;-82
2024/01/21 10:57:06;;;;;;;97.63;35.87;;;;;;;;;;5042246;28;20224;-82
2024/01/21 10:59:36;;;;;;;71.73;24.27;;;;;;;;;;5051868;28;20244;-82
2024/01/21 11:02:04;;;;;;;45.80;18.97;;;;;;;;;;5042693;28;20236;-81
2024/01/21 11:04:34;;;;;;;41.67;16.80;;;;;;;;;;5036942;28;20244;-83
2024/01/21 11:07:03;;;;;;;41.33;18.00;;;;;;;;;;5043362;28;20250;-83
2024/01/21 11:09:33;;;;;;;49.93;20.07;;;;;;;;;;5055202;28;20243;-83
2024/01/21 11:12:02;;;;;;;95.63;22.67;;;;;;;;;;5041174;28;20272;-82
2024/01/21 11:14:31;;;;;;;57.70;16.13;;;;;;;;;;5038822;28;20223;-82
2024/01/21 11:17:04;;;;;;;42.03;11.97;;;;;;;;;;5041040;28;20228;-83
2024/01/21 11:19:49;;;;;;;90.77;33.20;;;;;;;;;;5035081;28;20220;-82
2024/01/21 11:22:20;;;;;;;118.27;28.30;;;;;;;;;;5035126;28;20240;-81
2024/01/21 11:24:47;;;;;;;87.87;23.60;;;;;;;;;;5038684;28;20240;-85
2024/01/21 11:27:20;;;;;;;160.57;64.27;;;;;;;;;;5048403;28;20571;-82
2024/01/21 11:29:57;;;;;;;49.00;22.10;;;;;;;;;;5048231;28;20221;-83
2024/01/21 11:32:29;;;;;;;79.83;22.07;;;;;;;;;;5050205;28;20211;-82
2024/01/21 11:35:13;;;;;;;54.07;16.23;;;;;;;;;;5053955;28;20303;-82
2024/01/21 11:37:41;;;;;;;65.50;18.17;;;;;;;;;;5053774;28;20281;-82
2024/01/21 11:40:08;;;;;;;90.00;32.20;;;;;;;;;;5054427;28;20323;-82
2024/01/21 11:42:37;;;;;;;79.33;26.83;;;;;;;;;;5050074;28;20289;-82
2024/01/21 11:45:05;;;;;;;81.53;24.17;;;;;;;;;;5053771;28;20252;-82
2024/01/21 11:47:33;;;;;;;105.97;26.27;;;;;;;;;;5053513;28;20223;-82
2024/01/21 11:50:00;;;;;;;34.57;12.53;;;;;;;;;;5052823;28;20250;-82
2024/01/21 11:52:28;;;;;;;341.10;81.73;;;;;;;;;;5040521;28;20220;-82
2024/01/21 11:54:55;;;;;;;184.90;101.83;;;;;;;;;;5034751;28;20221;-82
2024/01/21 11:57:24;;;;;;;92.17;32.97;;;;;;;;;;5047241;28;20235;-82
2024/01/21 11:59:51;;;;;;;524.97;135.80;;;;;;;;;;5065044;28;20259;-82
2024/01/21 12:02:19;;;;;;;219.37;53.43;;;;;;;;;;5056586;28;20230;-82
2024/01/21 12:04:46;;;;;;;214.37;58.90;;;;;;;;;;5073681;28;20239;-81
2024/01/21 12:07:14;;;;;;;168.27;46.00;;;;;;;;;;5073754;28;20729;-81
2024/01/21 12:09:42;;;;;;;57.37;19.17;;;;;;;;;;5073719;28;20235;-81
2024/01/21 12:12:09;;;;;;;59.90;14.97;;;;;;;;;;5073527;28;20699;-82
2024/01/21 12:14:36;;;;;;;27.27;10.60;;;;;;;;;;5073559;28;20285;-82
2024/01/21 12:17:04;;;;;;;22.43;8.23;;;;;;;;;;5075462;28;21006;-82
2024/01/21 12:19:32;;;;;;;19.93;8.10;;;;;;;;;;5073489;28;20239;-82
2024/01/21 12:21:59;;;;;;;87.27;53.17;;;;;;;;;;5073418;28;20280;-82
2024/01/21 12:24:27;;;;;;;29.13;11.07;;;;;;;;;;5074062;28;20242;-82
2024/01/21 12:26:57;;;;;;;19.47;6.90;;;;;;;;;;5075247;28;20223;-82
2024/01/21 12:29:25;;;;;;;36.37;10.07;;;;;;;;;;5052390;28;20305;-82
2024/01/21 12:31:54;;;;;;;14.13;6.10;;;;;;;;;;5051836;28;20207;-82
2024/01/21 12:34:21;;;;;;;13.37;6.80;;;;;;;;;;5069216;28;20223;-81
2024/01/21 12:36:52;;;;;;;27.03;7.73;;;;;;;;;;5052281;28;20219;-82
2024/01/21 12:39:21;;;;;;;18.97;6.47;;;;;;;;;;5069567;28;20232;-82
2024/01/21 12:41:49;;;;;;;18.73;6.97;;;;;;;;;;5065957;28;20226;-82
2024/01/21 12:44:16;;;;;;;19.63;7.67;;;;;;;;;;5063586;28;20330;-81
2024/01/21 12:46:45;;;;;;;36.67;9.77;;;;;;;;;;5062017;28;20228;-82
2024/01/21 12:49:12;;;;;;;62.57;14.97;;;;;;;;;;5073663;28;20243;-81
2024/01/21 12:51:42;;;;;;;24.53;8.10;;;;;;;;;;5075255;28;20834;-81
2024/01/21 12:54:09;;;;;;;35.70;14.60;;;;;;;;;;5074896;28;20234;-81
2024/01/21 12:56:36;;;;;;;24.53;8.10;;;;;;;;;;5075621;28;20285;-82
2024/01/21 12:59:04;;;;;;;36.17;9.97;;;;;;;;;;5037448;28;20768;-82
2024/01/21 13:01:31;;;;;;;23.87;8.17;;;;;;;;;;5055258;28;20664;-81
2024/01/21 13:03:58;;;;;;;15.37;6.93;;;;;;;;;;5054833;28;20696;-82
2024/01/21 13:06:26;;;;;;;11.20;5.27;;;;;;;;;;5055770;28;20216;-81
2024/01/21 13:08:53;;;;;;;14.53;5.43;;;;;;;;;;5055354;28;20232;-82
2024/01/21 13:11:21;;;;;;;13.97;6.50;;;;;;;;;;5054994;28;20243;-82
2024/01/21 13:13:48;;;;;;;10.90;5.53;;;;;;;;;;5055747;28;20224;-82
2024/01/21 13:16:15;;;;;;;16.77;7.00;;;;;;;;;;5054814;28;20239;-82
2024/01/21 13:18:42;;;;;;;90.73;19.37;;;;;;;;;;5055718;28;20232;-82
2024/01/21 13:21:12;;;;;;;43.53;13.47;;;;;;;;;;5055229;28;20232;-82
2024/01/21 13:23:39;;;;;;;18.13;6.97;;;;;;;;;;5054993;28;20812;-82
2024/01/21 13:26:07;;;;;;;18.33;8.93;;;;;;;;;;5055000;28;20589;-81
2024/01/21 13:31:29;;;;;;;20.43;10.63;;;;;;;;;;5030954;28;20657;-81
2024/01/21 13:33:57;;;;;;;36.57;11.97;;;;;;;;;;5053573;28;20224;-81
2024/01/21 13:36:26;;;;;;;26.70;8.87;;;;;;;;;;5054446;28;20236;-81
2024/01/21 13:38:55;;;;;;;14.87;6.77;;;;;;;;;;5054577;28;20224;-81
2024/01/21 13:41:22;;;;;;;46.27;20.67;;;;;;;;;;5055600;28;20267;-81
2024/01/21 13:43:49;;;;;;;28.53;10.73;;;;;;;;;;5063182;28;20255;-81
2024/01/21 13:46:17;;;;;;;47.57;13.70;;;;;;;;;;5063742;28;20242;-82
2024/01/21 13:48:44;;;;;;;33.60;10.00;;;;;;;;;;5064330;28;20715;-81
2024/01/21 13:51:11;;;;;;;23.23;8.80;;;;;;;;;;5053991;28;20240;-81
2024/01/21 13:53:38;;;;;;;23.53;10.23;;;;;;;;;;5054200;28;20282;-82
2024/01/21 13:56:05;;;;;;;32.00;15.63;;;;;;;;;;5052125;28;20239;-81
2024/01/21 13:58:32;;;;;;;22.87;9.47;;;;;;;;;;5054442;28;20761;-80
2024/01/21 14:01:00;;;;;;;35.37;10.10;;;;;;;;;;5054928;28;20231;-80
2024/01/21 14:03:27;;;;;;;22.13;8.23;;;;;;;;;;5054869;28;20283;-80
2024/01/21 14:05:55;;;;;;;26.63;9.33;;;;;;;;;;5053686;28;20192;-80
2024/01/21 14:08:22;;;;;;;22.50;10.03;;;;;;;;;;5054890;28;20215;-79
2024/01/21 14:10:51;;;;;;;47.57;13.50;;;;;;;;;;5053634;28;20188;-81
2024/01/21 14:13:18;;;;;;;43.03;13.27;;;;;;;;;;5054451;28;20566;-79
2024/01/21 14:15:46;;;;;;;45.83;12.90;;;;;;;;;;5054744;28;20208;-81
2024/01/21 14:18:13;;;;;;;45.57;15.00;;;;;;;;;;5054399;28;20706;-81
2024/01/21 14:20:41;;;;;;;46.67;15.17;;;;;;;;;;5054779;28;20553;-80
2024/01/21 14:23:08;;;;;;;51.60;13.93;;;;;;;;;;5054136;28;20254;-81
2024/01/21 14:25:36;;;;;;;33.10;12.73;;;;;;;;;;5054052;28;20232;-81
2024/01/21 14:28:04;;;;;;;24.33;12.27;;;;;;;;;;5053222;28;20270;-81
2024/01/21 14:30:33;;;;;;;30.60;12.43;;;;;;;;;;5054445;28;20202;-81
2024/01/21 14:33:02;;;;;;;48.60;15.73;;;;;;;;;;5054088;28;20204;-81
2024/01/21 14:35:30;;;;;;;35.33;11.83;;;;;;;;;;5054431;28;20206;-81
2024/01/21 14:37:58;;;;;;;37.50;13.50;;;;;;;;;;5054063;28;20204;-80